10:27
Airports
History
Links
Donate
Help keep this website running!
PayPal
Bitcoin
This page is community maintained. The information is intended for PC simulator navigation or reference.
Always use approved charts for navigation.
KDRA
DESERT ROCK
DESERT ROCK (KDRA)
Pahrump, Nevada, United States (89060)
(U)
Lat/Lng:36° 37' 10.8" N / 116° 1' 56.7" W
36.619667 / -116.032417
Elevation:3314'ft / 1010mMSL
ID / ICAO:KDRA
Runways:1
Longest:02-20
Asphalt 2,269m / 7,445ft
METAR09:55 GMT 2017-09-24
Altimeter: 29.98
Visibility: 10.0 statute miles
Wind: 7 knots (from 060°)
Temp: 12°c / 54°f
Humidity: 37.6%

METAR: KDRA 240955Z AUTO 06007KT 10SM CLR 12/M02 A2998 RMK AO2 SLP122 T01171017

(Powered by phpweather)
Airport Radio Frequencies
ASOS: 119.67
CTAF/UNICOM: 122.8
Nearby VORs <50NM
Nearby NDBs
Runway 02 / 20
Dimensions:2269.2 x 30.5m 7445' x 100'ft
Surface:Asphalt
Edge Lights:Medium intensity
Runway 02 [A]Runway 20 [B]
Heading:033°TH 213°TH
Lat:
Lng:
36° 36' 40.2"N
116° 2' 22.2"W
36° 37' 41.4"N
116° 1' 31.2"W
User Notes and Comments
36° 37' 10.8" N / 116° 1' 56.7" W
Distance To
Airport ID:
Nearby Airports
(R) Creech Afb 19.7 NM
KINS ( WX ) E 97°
4 Jackass Aeropark 21.1 NM
U75 W 272°
(R) Yucca Airstrip 22.5 NM
NV11 N 359°
(R) Calvada Meadows 24.2 NM
NV74 S 175°
4 Imvite 26.2 NM
NV36 WSW 243°
4 Amargosa 31.3 NM
8L3 SW 224°
(R) Pahute Mesa Airstrip 36.8 NM
L23 NNW 335°
VFR Chart
Flight Planning at SkyVector.com